Time;durP1;ratioP1;P1;durP2;ratioP2;P2;SDS_P1;SDS_P2;PMS_P1;PMS_P2;Temp;Humidity;BMP_temperature;BMP_pressure;BME280_temperature;BME280_humidity;BME280_pressure;Samples;Min_cycle;Max_cycle;Signal;HPM_P1;HPM_P2
2024/03/29 00:01:55;;;;;;;4.00;3.47;;;;;;;11.36;56.48;99039.75;4955744;29;20208;-76
2024/03/29 00:04:20;;;;;;;4.53;3.40;;;;;;;10.65;57.79;99040.28;4969889;28;20197;-77
2024/03/29 00:06:45;;;;;;;3.47;2.90;;;;;;;11.16;56.53;99034.94;4956097;28;20256;-77
2024/03/29 00:09:11;;;;;;;4.13;2.80;;;;;;;11.23;56.12;99035.69;4956527;29;20176;-76
2024/03/29 00:11:36;;;;;;;4.03;3.50;;;;;;;10.86;57.25;99039.03;4955831;28;20176;-78
2024/03/29 00:14:02;;;;;;;3.67;2.90;;;;;;;11.36;56.16;99038.91;4956426;29;20177;-77
2024/03/29 00:16:27;;;;;;;3.40;2.90;;;;;;;10.87;56.95;99032.94;4956441;29;20197;-77
2024/03/29 00:18:52;;;;;;;4.03;3.20;;;;;;;11.44;55.70;99024.81;4956063;29;20183;-78
2024/03/29 00:21:18;;;;;;;4.10;3.23;;;;;;;11.19;56.26;99026.22;4955601;29;20184;-77
2024/03/29 00:23:46;;;;;;;3.40;2.90;;;;;;;10.65;57.12;99029.84;4956675;28;20212;-77
2024/03/29 00:26:12;;;;;;;4.37;3.37;;;;;;;10.79;57.03;99030.47;4956722;28;20189;-76
2024/03/29 00:28:38;;;;;;;4.63;3.13;;;;;;;10.86;57.07;99033.81;4954201;29;20837;-75
2024/03/29 00:31:04;;;;;;;3.80;3.40;;;;;;;11.36;55.98;99026.72;4954309;29;20181;-78
2024/03/29 00:33:30;;;;;;;4.00;3.30;;;;;;;11.12;56.44;99025.47;4955383;28;20899;-77
2024/03/29 00:35:55;;;;;;;4.90;3.30;;;;;;;11.26;56.07;99026.06;4959530;29;20177;-76
2024/03/29 00:38:21;;;;;;;4.80;3.00;;;;;;;10.49;57.69;99029.28;4961434;28;20197;-77
2024/03/29 00:40:46;;;;;;;4.50;3.70;;;;;;;10.93;56.92;99020.66;4963149;29;20205;-76
2024/03/29 00:43:12;;;;;;;3.57;3.20;;;;;;;10.70;57.43;99031.50;4963776;29;20212;-76
2024/03/29 00:45:37;;;;;;;4.40;3.10;;;;;;;10.24;58.17;99040.94;4963476;29;20203;-77
2024/03/29 00:48:03;;;;;;;5.80;4.27;;;;;;;11.01;56.45;99033.50;4961192;29;20216;-76
2024/03/29 00:50:28;;;;;;;7.97;6.00;;;;;;;11.33;55.70;99025.94;4962760;28;20173;-76
2024/03/29 00:52:53;;;;;;;6.43;3.70;;;;;;;11.34;55.66;99032.84;4962920;28;20173;-76
2024/03/29 00:55:20;;;;;;;5.47;3.60;;;;;;;10.63;57.84;99026.44;4959874;29;20201;-78
2024/03/29 00:57:45;;;;;;;6.93;5.97;;;;;;;11.25;55.97;99028.69;4963798;28;20224;-77
2024/03/29 01:00:14;;;;;;;6.60;4.13;;;;;;;10.77;57.22;99043.53;4960955;28;20405;-78
2024/03/29 01:02:39;;;;;;;6.93;3.60;;;;;;;10.20;58.32;99041.91;4964531;28;20204;-77
2024/03/29 01:05:06;;;;;;;8.00;4.37;;;;;;;11.23;56.06;99031.34;4966590;28;20464;-78
2024/03/29 01:07:31;;;;;;;9.97;7.47;;;;;;;11.25;56.12;99028.69;4964399;28;20204;-76
2024/03/29 01:09:56;;;;;;;3.87;3.47;;;;;;;10.91;55.88;99035.44;4962864;28;20444;-77
2024/03/29 01:12:21;;;;;;;13.93;9.00;;;;;;;11.64;55.02;99028.75;4961193;28;20208;-77
2024/03/29 01:14:47;;;;;;;4.30;2.97;;;;;;;10.61;56.40;99034.28;4953613;28;20540;-77
2024/03/29 01:17:12;;;;;;;5.03;3.20;;;;;;;11.36;56.04;99036.31;4962773;28;20197;-76
2024/03/29 01:19:37;;;;;;;4.70;3.67;;;;;;;11.15;56.51;99035.88;4981797;28;20236;-76
2024/03/29 01:22:04;;;;;;;6.33;3.93;;;;;;;10.70;57.03;99034.13;4966036;28;20179;-76
2024/03/29 01:24:29;;;;;;;6.73;4.10;;;;;;;10.96;56.89;99030.16;4966105;28;20227;-76
2024/03/29 01:26:55;;;;;;;5.13;3.40;;;;;;;10.61;56.99;99035.13;4980311;28;20466;-76
2024/03/29 01:29:20;;;;;;;5.27;3.40;;;;;;;10.68;56.53;99029.81;4966699;28;20177;-76
2024/03/29 01:31:45;;;;;;;4.90;3.60;;;;;;;11.34;55.04;99036.34;4965477;28;20253;-77
2024/03/29 01:34:10;;;;;;;8.77;3.20;;;;;;;10.95;56.10;99033.66;4966003;28;20172;-76
2024/03/29 01:36:36;;;;;;;6.27;3.33;;;;;;;10.39;57.54;99050.28;4966231;28;20283;-77
2024/03/29 01:39:02;;;;;;;4.90;3.80;;;;;;;11.51;54.98;99029.91;4964645;28;20251;-77
2024/03/29 01:41:27;;;;;;;4.97;3.33;;;;;;;11.51;54.97;99035.13;4964843;28;20231;-77
2024/03/29 01:43:53;;;;;;;4.73;2.90;;;;;;;11.37;54.70;99045.84;4959785;28;20199;-76
2024/03/29 01:46:21;;;;;;;6.60;3.20;;;;;;;11.83;54.37;99034.41;4959844;28;20256;-76
2024/03/29 01:48:47;;;;;;;4.13;3.10;;;;;;;11.35;55.13;99048.50;4964722;28;20738;-77
2024/03/29 01:51:15;;;;;;;3.70;3.20;;;;;;;11.40;55.38;99041.41;4964651;28;20428;-77
2024/03/29 01:53:41;;;;;;;4.00;2.83;;;;;;;11.59;55.03;99041.03;4964296;28;20315;-76
2024/03/29 01:56:07;;;;;;;5.63;3.33;;;;;;;10.68;57.13;99035.88;4964597;28;20483;-77
2024/03/29 01:58:32;;;;;;;4.50;2.93;;;;;;;11.52;55.50;99035.06;4962316;28;20173;-77
2024/03/29 02:00:59;;;;;;;3.57;3.17;;;;;;;10.35;57.79;99043.41;4962843;28;20446;-77
2024/03/29 02:03:25;;;;;;;3.17;2.87;;;;;;;10.93;57.11;99038.03;4974141;28;20180;-78
2024/03/29 02:05:50;;;;;;;4.50;3.10;;;;;;;10.57;57.34;99037.84;4961181;28;20430;-77
2024/03/29 02:08:16;;;;;;;4.27;3.40;;;;;;;10.40;57.99;99045.94;4964806;28;20213;-77
2024/03/29 02:10:43;;;;;;;3.80;3.50;;;;;;;10.75;57.23;99042.69;4965675;28;20187;-76
2024/03/29 02:13:09;;;;;;;9.10;3.50;;;;;;;10.26;58.12;99035.72;4960835;28;20956;-77
2024/03/29 02:15:34;;;;;;;3.53;2.90;;;;;;;10.72;57.50;99045.34;4952890;28;20432;-78
2024/03/29 02:17:59;;;;;;;3.40;3.03;;;;;;;10.83;56.86;99046.91;4961074;28;20196;-78
2024/03/29 02:20:25;;;;;;;5.10;3.10;;;;;;;11.03;56.44;99050.00;4958081;28;20224;-76
2024/03/29 02:22:56;;;;;;;3.40;2.97;;;;;;;11.07;56.00;99048.19;4953925;28;20664;-77
2024/03/29 02:25:21;;;;;;;5.20;2.83;;;;;;;10.49;57.40;99060.56;4970307;28;20208;-75
2024/03/29 02:27:50;;;;;;;4.13;3.00;;;;;;;10.88;56.63;99060.69;4955260;28;20941;-77
2024/03/29 02:30:16;;;;;;;3.27;2.97;;;;;;;10.89;56.71;99054.59;4957008;28;20183;-77
2024/03/29 02:32:42;;;;;;;3.73;3.00;;;;;;;10.28;57.38;99059.97;4955528;28;20473;-76
2024/03/29 02:35:08;;;;;;;5.10;3.00;;;;;;;10.52;57.43;99065.72;4955803;28;20412;-76
2024/03/29 02:37:36;;;;;;;3.97;3.10;;;;;;;10.84;56.77;99059.03;4972053;28;20281;-77
2024/03/29 02:40:03;;;;;;;6.20;3.77;;;;;;;10.51;57.37;99066.59;4961361;28;20177;-77
2024/03/29 02:42:28;;;;;;;4.13;3.43;;;;;;;10.28;58.00;99063.47;4957039;28;20479;-76
2024/03/29 02:44:55;;;;;;;4.50;3.23;;;;;;;10.82;57.10;99069.50;4955416;28;20439;-77
2024/03/29 02:47:21;;;;;;;4.63;3.27;;;;;;;10.40;57.26;99072.81;4955361;28;20216;-77
2024/03/29 02:49:46;;;;;;;5.47;3.33;;;;;;;10.60;56.77;99072.50;4955697;28;20448;-77
2024/03/29 02:52:11;;;;;;;6.43;3.63;;;;;;;10.22;57.70;99067.91;4954783;28;20185;-77
2024/03/29 02:54:37;;;;;;;4.83;3.60;;;;;;;10.76;56.43;99060.06;4954629;28;20597;-77
2024/03/29 02:57:02;;;;;;;3.73;3.30;;;;;;;10.92;56.04;99062.41;4955437;28;20200;-78
2024/03/29 02:59:28;;;;;;;5.30;3.23;;;;;;;10.58;56.69;99061.25;4956409;28;20646;-77
2024/03/29 03:01:53;;;;;;;7.47;4.20;;;;;;;10.85;56.77;99065.97;4956701;28;20176;-78
2024/03/29 03:04:18;;;;;;;3.10;2.80;;;;;;;11.00;56.05;99060.50;4971592;28;20212;-78
2024/03/29 03:06:43;;;;;;;4.17;3.03;;;;;;;11.29;54.95;99059.06;4957238;28;20216;-77
2024/03/29 03:11:52;;;;;;;4.70;2.87;;;;;;;10.87;55.98;99052.03;4956434;29;20188;-78
2024/03/29 03:14:18;;;;;;;5.37;3.00;;;;;;;10.78;55.94;99042.66;4963423;28;20910;-78
2024/03/29 03:16:43;;;;;;;6.67;2.73;;;;;;;11.24;54.84;99046.13;4957118;28;20247;-78
2024/03/29 03:19:08;;;;;;;9.20;7.50;;;;;;;10.93;55.56;99035.41;4956887;28;20180;-78
2024/03/29 03:21:35;;;;;;;4.67;2.97;;;;;;;10.52;56.43;99039.66;4956699;28;20181;-77
2024/03/29 03:24:00;;;;;;;5.10;3.40;;;;;;;10.74;56.51;99037.50;4956383;28;20216;-78
2024/03/29 03:26:25;;;;;;;4.80;3.10;;;;;;;11.04;55.84;99032.59;4959006;28;20411;-78
2024/03/29 03:28:51;;;;;;;6.23;2.90;;;;;;;10.53;56.69;99026.59;4964476;28;20188;-77
2024/03/29 03:31:17;;;;;;;4.30;2.93;;;;;;;10.90;55.98;99012.88;4960070;28;20207;-77
2024/03/29 03:33:42;;;;;;;5.43;2.80;;;;;;;10.56;56.76;99020.47;4956945;28;20408;-76
2024/03/29 03:36:07;;;;;;;3.93;3.10;;;;;;;10.19;57.98;99039.28;4954434;28;20169;-77
2024/03/29 03:38:34;;;;;;;3.47;3.00;;;;;;;10.29;57.38;99036.50;4954347;28;20176;-77
2024/03/29 03:41:00;;;;;;;5.07;3.00;;;;;;;10.25;58.02;99036.59;4954611;28;20173;-77
2024/03/29 03:43:25;;;;;;;4.70;3.17;;;;;;;10.39;57.81;99044.19;4969146;28;20488;-77
2024/03/29 03:45:50;;;;;;;3.73;2.90;;;;;;;9.97;57.75;99052.63;4954453;28;20201;-77
2024/03/29 03:48:15;;;;;;;5.67;2.80;;;;;;;9.81;58.76;99052.03;4953225;29;20224;-77
2024/03/29 03:50:41;;;;;;;4.27;2.50;;;;;;;10.45;57.64;99055.38;4954538;28;20173;-77
2024/03/29 03:53:07;;;;;;;4.50;2.50;;;;;;;10.41;57.97;99053.72;4954197;28;20228;-77
2024/03/29 03:55:36;;;;;;;4.50;3.00;;;;;;;10.48;57.08;99064.88;4957376;28;20169;-76
2024/03/29 03:58:01;;;;;;;3.77;2.50;;;;;;;10.43;57.00;99062.38;4962307;28;20193;-78
2024/03/29 04:00:27;;;;;;;3.50;2.70;;;;;;;10.03;57.54;99062.97;4976287;28;20391;-77
2024/03/29 04:02:53;;;;;;;3.50;2.77;;;;;;;9.80;58.43;99059.88;4961836;28;20200;-78
2024/03/29 04:05:19;;;;;;;3.77;3.17;;;;;;;10.47;56.87;99052.75;4966459;28;20460;-76
2024/03/29 04:07:45;;;;;;;4.23;3.03;;;;;;;10.73;55.68;99054.03;4967175;28;20263;-76
2024/03/29 04:10:11;;;;;;;4.33;2.97;;;;;;;10.70;56.31;99061.91;4969321;29;20440;-76
2024/03/29 04:12:36;;;;;;;4.30;2.57;;;;;;;10.48;56.63;99064.03;4967548;28;20173;-76
2024/03/29 04:15:03;;;;;;;5.17;2.70;;;;;;;10.97;55.41;99057.94;4962160;28;20387;-77
2024/03/29 04:17:30;;;;;;;4.80;2.80;;;;;;;10.89;55.69;99065.03;4972510;28;20271;-77
2024/03/29 04:19:56;;;;;;;3.93;2.43;;;;;;;10.56;56.65;99054.34;4971849;28;20405;-78
2024/03/29 04:22:21;;;;;;;8.80;6.87;;;;;;;10.65;56.23;99053.31;4970807;29;20423;-76
2024/03/29 04:24:46;;;;;;;19.87;15.57;;;;;;;10.71;55.64;99053.22;4968848;29;20292;-77
2024/03/29 04:27:12;;;;;;;4.70;3.27;;;;;;;10.95;55.06;99055.34;4959525;28;20189;-78
2024/03/29 04:29:37;;;;;;;5.97;3.03;;;;;;;10.88;55.62;99051.16;4958034;29;20193;-78
2024/03/29 04:32:02;;;;;;;3.40;2.70;;;;;;;10.57;56.46;99040.44;4959725;28;20224;-77
2024/03/29 04:34:28;;;;;;;6.43;2.93;;;;;;;10.91;55.35;99042.41;4957855;28;20173;-77
2024/03/29 04:36:53;;;;;;;4.73;2.70;;;;;;;10.42;56.17;99049.38;4958261;28;20584;-77
2024/03/29 04:39:18;;;;;;;3.50;2.60;;;;;;;10.21;56.72;99050.56;4957119;29;20188;-78
2024/03/29 04:41:44;;;;;;;3.63;2.40;;;;;;;10.71;55.75;99051.44;4973785;28;20177;-77
2024/03/29 04:44:09;;;;;;;3.70;2.50;;;;;;;10.58;56.34;99055.16;4973769;28;20208;-77
2024/03/29 04:46:34;;;;;;;4.53;3.17;;;;;;;10.88;55.52;99055.50;4959178;28;20205;-78
2024/03/29 04:48:59;;;;;;;4.60;2.80;;;;;;;10.79;55.67;99057.38;4958962;28;20204;-77
2024/03/29 04:51:25;;;;;;;3.97;2.63;;;;;;;10.67;56.27;99065.44;4957784;29;20184;-76
2024/03/29 04:53:50;;;;;;;3.37;2.77;;;;;;;10.58;55.86;99063.84;4957898;29;20173;-78
2024/03/29 04:56:16;;;;;;;5.70;2.80;;;;;;;10.87;55.41;99069.44;4958244;28;20253;-77
2024/03/29 04:58:42;;;;;;;3.53;2.27;;;;;;;10.60;55.82;99074.25;4959552;28;20173;-76
2024/03/29 05:01:07;;;;;;;3.73;2.67;;;;;;;10.69;55.68;99075.81;4961640;28;20276;-76
2024/03/29 05:03:32;;;;;;;2.80;2.50;;;;;;;11.01;54.83;99077.84;4971245;28;20941;-77
2024/03/29 05:05:58;;;;;;;3.50;2.80;;;;;;;10.95;54.71;99081.44;4971830;28;20173;-76
2024/03/29 05:08:23;;;;;;;5.50;2.43;;;;;;;10.55;56.08;99087.38;4970346;28;20212;-76
2024/03/29 05:10:52;;;;;;;4.47;2.83;;;;;;;10.41;56.58;99084.97;4967365;28;20189;-78
2024/03/29 05:13:21;;;;;;;4.47;2.77;;;;;;;10.84;55.06;99083.38;4970430;28;20738;-78
2024/03/29 05:15:47;;;;;;;3.03;2.60;;;;;;;10.85;54.63;99076.41;4955681;29;20924;-77
2024/03/29 05:18:13;;;;;;;6.20;2.60;;;;;;;11.11;54.50;99076.78;4958878;28;20438;-78
2024/03/29 05:20:41;;;;;;;4.33;2.73;;;;;;;11.00;54.70;99089.19;4973319;28;20391;-78
2024/03/29 05:23:07;;;;;;;5.13;2.83;;;;;;;10.54;55.69;99093.47;4956701;28;20197;-78
2024/03/29 05:25:32;;;;;;;3.10;2.80;;;;;;;10.58;55.64;99084.69;4972796;28;20435;-78
2024/03/29 05:27:57;;;;;;;3.23;2.70;;;;;;;9.86;57.35;99081.44;4958252;28;20988;-77
2024/03/29 05:30:24;;;;;;;4.17;2.83;;;;;;;10.50;56.14;99088.31;4958106;28;20271;-78
2024/03/29 05:32:49;;;;;;;4.93;3.67;;;;;;;10.93;54.47;99096.25;4957361;28;20172;-77
2024/03/29 05:35:15;;;;;;;6.90;3.43;;;;;;;10.69;55.39;99094.06;4974237;28;20428;-78
2024/03/29 05:37:40;;;;;;;4.40;2.90;;;;;;;10.98;54.62;99093.56;4975332;28;20201;-78
2024/03/29 05:40:07;;;;;;;3.13;2.60;;;;;;;10.73;54.81;99114.84;4958575;28;20649;-78
2024/03/29 05:42:34;;;;;;;3.37;2.63;;;;;;;10.86;54.86;99112.03;4957793;28;20173;-78
2024/03/29 05:44:59;;;;;;;3.70;2.83;;;;;;;10.74;54.56;99107.88;4958375;28;20537;-77
2024/03/29 05:47:24;;;;;;;4.63;2.87;;;;;;;10.69;54.91;99112.31;4958205;28;20491;-78
2024/03/29 05:49:50;;;;;;;5.00;3.03;;;;;;;10.85;55.17;99115.50;4957919;28;20181;-78
2024/03/29 05:52:16;;;;;;;6.23;3.10;;;;;;;10.09;55.94;99135.81;4972282;28;20180;-77
2024/03/29 05:54:45;;;;;;;3.87;2.77;;;;;;;10.83;54.93;99119.91;4972544;28;20780;-76
2024/03/29 05:57:11;;;;;;;3.73;2.57;;;;;;;10.51;54.93;99116.09;4972615;28;20209;-77
2024/03/29 05:59:37;;;;;;;4.43;2.90;;;;;;;10.53;55.43;99119.53;4957473;28;20412;-78
2024/03/29 06:02:04;;;;;;;7.23;3.13;;;;;;;10.97;54.77;99124.88;4957394;28;20423;-78
2024/03/29 06:04:32;;;;;;;4.63;3.80;;;;;;;10.98;54.23;99127.44;4956016;28;20467;-78
2024/03/29 06:06:58;;;;;;;5.10;3.43;;;;;;;11.02;54.29;99123.91;4971793;28;20906;-77
2024/03/29 06:09:24;;;;;;;5.37;3.20;;;;;;;10.57;55.07;99134.25;4957745;28;20424;-77
2024/03/29 06:11:49;;;;;;;4.57;3.00;;;;;;;9.97;56.78;99142.91;4972206;28;20395;-78
2024/03/29 06:19:42;;;;;;;6.00;2.93;;;;;;;10.89;54.93;99132.81;4956721;29;20391;-77
2024/03/29 06:22:09;;;;;;;8.07;3.00;;;;;;;10.97;54.74;99137.91;4956779;28;20766;-78
2024/03/29 06:24:34;;;;;;;5.17;3.03;;;;;;;11.20;53.98;99138.34;4971367;28;20686;-77
2024/03/29 06:27:00;;;;;;;4.87;3.27;;;;;;;11.31;53.63;99142.50;4957235;28;20463;-79
2024/03/29 06:29:25;;;;;;;5.87;3.00;;;;;;;10.93;54.46;99142.31;4957292;28;20196;-78
2024/03/29 06:31:51;;;;;;;5.30;2.90;;;;;;;10.97;54.82;99141.38;4971703;28;20184;-78
2024/03/29 06:34:16;;;;;;;4.63;3.40;;;;;;;11.23;53.79;99137.41;4971498;28;20184;-78
2024/03/29 06:36:41;;;;;;;4.50;3.17;;;;;;;11.15;54.00;99145.41;4957174;28;20192;-78
2024/03/29 06:39:07;;;;;;;3.23;2.90;;;;;;;11.41;54.13;99141.44;4955490;29;20181;-78
2024/03/29 06:41:32;;;;;;;6.77;3.37;;;;;;;11.55;53.54;99139.41;4956807;29;20251;-77
2024/03/29 06:43:58;;;;;;;6.10;3.00;;;;;;;11.68;53.09;99145.25;4970485;28;20456;-77
2024/03/29 06:46:23;;;;;;;5.43;3.53;;;;;;;10.78;54.60;99144.31;4955369;28;20184;-76
2024/03/29 06:48:49;;;;;;;3.37;2.80;;;;;;;11.25;53.91;99133.03;4954410;29;20651;-76
2024/03/29 06:51:14;;;;;;;5.67;3.00;;;;;;;11.44;53.27;99139.59;4970668;28;20208;-76
2024/03/29 06:53:39;;;;;;;5.40;3.17;;;;;;;11.69;53.09;99146.09;4955300;28;20459;-77
2024/03/29 06:56:05;;;;;;;5.20;3.20;;;;;;;11.20;53.59;99140.94;4954494;28;20181;-77
2024/03/29 06:58:31;;;;;;;4.53;2.80;;;;;;;11.34;53.27;99135.47;4955693;28;20195;-77
2024/03/29 07:00:58;;;;;;;3.63;3.07;;;;;;;11.74;52.88;99152.09;4955284;28;20705;-77
2024/03/29 07:03:24;;;;;;;3.67;2.73;;;;;;;11.15;53.89;99145.41;4954828;29;20639;-77
2024/03/29 07:05:49;;;;;;;3.70;2.93;;;;;;;11.60;52.82;99160.19;4954889;29;20494;-77
2024/03/29 07:08:14;;;;;;;3.20;2.57;;;;;;;11.55;52.96;99160.28;4956503;28;20343;-75
2024/03/29 07:10:40;;;;;;;4.10;2.50;;;;;;;11.21;53.41;99162.69;4956817;28;20556;-77
2024/03/29 07:13:09;;;;;;;3.50;2.63;;;;;;;11.51;53.16;99147.34;4953987;28;20560;-77
2024/03/29 07:15:34;;;;;;;2.63;2.33;;;;;;;10.82;53.97;99149.47;4950445;29;20188;-78
2024/03/29 07:18:02;;;;;;;5.37;2.83;;;;;;;11.75;52.40;99161.66;4958478;28;20411;-77
2024/03/29 07:20:28;;;;;;;5.13;2.83;;;;;;;11.60;52.91;99173.25;4955596;28;20576;-77
2024/03/29 07:22:53;;;;;;;4.07;2.63;;;;;;;11.31;53.58;99161.59;4954418;28;20520;-77
2024/03/29 07:25:18;;;;;;;3.67;2.80;;;;;;;11.68;52.89;99173.09;4969342;28;20213;-76
2024/03/29 07:27:44;;;;;;;6.37;3.10;;;;;;;11.58;53.06;99164.56;4954103;28;20674;-76
2024/03/29 07:30:10;;;;;;;5.33;3.13;;;;;;;10.94;54.43;99173.56;4952895;29;20213;-76
2024/03/29 07:32:36;;;;;;;6.00;3.30;;;;;;;11.57;53.22;99179.38;4953031;28;20173;-78
2024/03/29 07:35:02;;;;;;;5.73;3.50;;;;;;;11.72;53.04;99167.78;4955149;28;20940;-78
2024/03/29 07:37:28;;;;;;;4.30;3.03;;;;;;;11.51;53.47;99181.25;4955071;28;20601;-77
2024/03/29 07:39:53;;;;;;;4.57;3.10;;;;;;;11.38;53.13;99194.53;4955021;28;20516;-77
2024/03/29 07:42:19;;;;;;;7.33;3.30;;;;;;;11.29;54.38;99194.72;4954938;28;20259;-76
2024/03/29 07:44:44;;;;;;;3.93;2.70;;;;;;;11.29;54.19;99199.94;4955514;28;20232;-77
2024/03/29 07:47:10;;;;;;;4.00;3.17;;;;;;;11.56;53.96;99197.69;4955768;28;20197;-77
2024/03/29 07:49:35;;;;;;;3.60;3.03;;;;;;;11.40;54.12;99200.56;4969954;28;20631;-76
2024/03/29 07:52:05;;;;;;;7.10;3.40;;;;;;;11.70;53.73;99206.09;4956036;28;20262;-77
2024/03/29 07:54:30;;;;;;;6.67;3.30;;;;;;;11.53;54.48;99206.44;4954744;28;20241;-78
2024/03/29 07:56:56;;;;;;;4.27;3.00;;;;;;;11.53;54.47;99197.72;4955957;28;20510;-77
2024/03/29 07:59:21;;;;;;;8.13;5.00;;;;;;;11.05;55.32;99212.50;4955629;28;20187;-77
2024/03/29 08:01:47;;;;;;;3.70;3.30;;;;;;;11.72;54.17;99209.56;4955622;28;20182;-77
2024/03/29 08:04:12;;;;;;;4.30;3.30;;;;;;;12.07;53.68;99214.97;4954271;29;20204;-78
2024/03/29 08:06:37;;;;;;;5.03;2.90;;;;;;;11.49;54.76;99223.03;4955285;29;20296;-77
2024/03/29 08:09:02;;;;;;;3.07;2.13;;;;;;;12.01;54.11;99213.34;4954714;29;20184;-77
2024/03/29 08:11:28;;;;;;;3.57;2.97;;;;;;;11.45;54.90;99232.66;4955374;28;20192;-77
2024/03/29 08:13:53;;;;;;;4.40;2.60;;;;;;;12.25;53.65;99227.63;4968924;28;20605;-77
2024/03/29 08:16:19;;;;;;;3.50;2.90;;;;;;;11.45;54.63;99237.88;4950750;29;20177;-77
2024/03/29 08:18:46;;;;;;;4.60;2.43;;;;;;;11.61;55.26;99250.69;4950764;29;20174;-77
2024/03/29 08:21:12;;;;;;;25.27;17.77;;;;;;;12.06;54.44;99234.16;4935704;29;20197;-77
2024/03/29 08:23:41;;;;;;;4.37;3.60;;;;;;;12.37;53.00;99236.97;4937193;29;20392;-77
2024/03/29 08:26:06;;;;;;;5.00;3.57;;;;;;;12.55;53.14;99233.06;4937473;29;20189;-76
2024/03/29 08:28:32;;;;;;;6.87;5.30;;;;;;;12.08;54.08;99234.97;4951322;29;20413;-80
2024/03/29 08:31:03;;;;;;;3.50;2.30;;;;;;;11.09;56.11;99240.25;4937532;29;20186;-77
2024/03/29 08:33:28;;;;;;;3.17;2.47;;;;;;;12.08;54.33;99225.41;4936454;29;20178;-77
2024/03/29 08:35:54;;;;;;;5.83;4.40;;;;;;;12.52;53.50;99219.25;4937746;29;20395;-78
2024/03/29 08:38:19;;;;;;;4.90;3.10;;;;;;;12.39;53.79;99209.03;4935287;29;20248;-77
2024/03/29 08:40:47;;;;;;;4.30;3.10;;;;;;;12.55;53.96;99200.88;4950074;29;20182;-76
2024/03/29 08:43:13;;;;;;;3.00;2.50;;;;;;;12.26;54.71;99198.00;4935226;29;20206;-77
2024/03/29 08:45:40;;;;;;;4.00;2.63;;;;;;;12.32;55.13;99183.09;4934787;29;20886;-77
2024/03/29 08:48:09;;;;;;;3.00;2.17;;;;;;;12.27;55.38;99204.97;4934655;29;20569;-76
2024/03/29 08:50:35;;;;;;;24.83;16.83;;;;;;;12.37;55.58;99202.16;4934385;29;20388;-76
2024/03/29 08:53:03;;;;;;;3.27;2.50;;;;;;;11.68;57.42;99204.44;4932842;29;20536;-76
2024/03/29 08:55:28;;;;;;;3.80;2.40;;;;;;;12.63;55.49;99189.31;4935030;29;20432;-75
2024/03/29 08:57:54;;;;;;;4.33;2.17;;;;;;;12.26;56.81;99190.19;4937761;29;20433;-76
2024/03/29 09:00:19;;;;;;;3.70;2.27;;;;;;;12.83;55.62;99180.16;4936468;29;20193;-76
2024/03/29 09:02:46;;;;;;;3.33;2.00;;;;;;;12.72;56.20;99177.78;4937542;29;20212;-75
2024/03/29 09:05:11;;;;;;;3.40;2.43;;;;;;;11.81;57.83;99185.00;4938753;29;20213;-77
2024/03/29 09:07:38;;;;;;;3.20;2.20;;;;;;;11.94;58.16;99188.22;4940154;29;20435;-77
2024/03/29 09:10:04;;;;;;;3.43;2.60;;;;;;;12.86;56.23;99174.84;4937206;28;20185;-76
2024/03/29 09:12:29;;;;;;;2.73;2.00;;;;;;;12.57;56.96;99180.75;4938465;29;20429;-79
2024/03/29 09:14:54;;;;;;;3.07;2.47;;;;;;;12.80;56.62;99173.22;4964381;28;20185;-78
2024/03/29 09:17:21;;;;;;;6.40;2.60;;;;;;;12.63;57.06;99167.56;4960050;28;20204;-78
2024/03/29 09:19:50;;;;;;;3.60;2.80;;;;;;;12.78;57.29;99164.56;4958678;29;20169;-78
2024/03/29 09:22:15;;;;;;;8.47;6.30;;;;;;;13.18;56.40;99156.56;4958686;29;20399;-78
2024/03/29 09:24:41;;;;;;;4.97;3.87;;;;;;;12.94;56.69;99162.41;4957794;29;20464;-77
2024/03/29 09:27:07;;;;;;;3.90;3.33;;;;;;;12.81;57.14;99176.69;4957297;29;20283;-77
2024/03/29 09:29:32;;;;;;;3.63;3.33;;;;;;;12.65;57.48;99168.38;4957159;29;20200;-77
2024/03/29 09:31:57;;;;;;;4.87;2.63;;;;;;;12.75;57.58;99156.78;4957239;29;20452;-77
2024/03/29 09:34:23;;;;;;;2.97;2.30;;;;;;;12.60;57.29;99167.63;4955653;29;20177;-76
2024/03/29 09:36:48;;;;;;;3.63;2.50;;;;;;;12.64;57.32;99169.28;4957842;28;20197;-77
2024/03/29 09:39:14;;;;;;;3.70;2.97;;;;;;;12.76;57.47;99163.75;4959741;29;20181;-75
2024/03/29 09:41:44;;;;;;;19.53;12.77;;;;;;;12.53;57.97;99160.81;4957167;29;20232;-76
2024/03/29 09:44:11;;;;;;;2.90;2.07;;;;;;;11.87;59.90;99165.75;4957156;28;20287;-77
2024/03/29 09:46:39;;;;;;;3.80;2.50;;;;;;;11.78;60.11;99161.56;4956707;29;20948;-77
2024/03/29 09:49:06;;;;;;;4.73;2.37;;;;;;;13.02;57.51;99143.91;4955986;29;20501;-75
2024/03/29 09:51:32;;;;;;;3.60;2.40;;;;;;;12.76;57.99;99148.06;4954756;28;20409;-77
2024/03/29 09:53:59;;;;;;;3.93;2.53;;;;;;;12.71;58.23;99164.75;4956459;28;20467;-78
2024/03/29 09:56:28;;;;;;;3.07;2.33;;;;;;;11.57;60.81;99168.09;4957641;29;20391;-78
2024/03/29 09:58:53;;;;;;;3.60;2.70;;;;;;;12.78;58.27;99154.09;4958047;29;20420;-76
2024/03/29 10:01:19;;;;;;;5.80;4.10;;;;;;;12.51;58.94;99150.41;4956326;29;20406;-77
2024/03/29 10:03:52;;;;;;;4.40;3.27;;;;;;;12.73;58.28;99123.72;4956032;29;20240;-77
2024/03/29 10:06:23;;;;;;;3.47;2.73;;;;;;;12.80;58.26;99126.16;4972842;28;20180;-78
2024/03/29 10:08:49;;;;;;;4.20;3.30;;;;;;;12.76;58.76;99132.38;4954950;29;20797;-77
2024/03/29 10:11:18;;;;;;;2.90;2.40;;;;;;;12.17;59.87;99126.81;4954695;29;20430;-76
2024/03/29 10:13:45;;;;;;;3.30;3.00;;;;;;;12.68;59.10;99122.97;4957034;29;20180;-77
2024/03/29 10:16:11;;;;;;;5.40;3.17;;;;;;;11.54;61.91;99142.03;4959183;29;20399;-77
2024/03/29 10:18:36;;;;;;;7.60;5.13;;;;;;;11.75;61.48;99140.75;4971513;28;20904;-77
2024/03/29 10:21:08;;;;;;;4.40;2.87;;;;;;;12.33;60.06;99133.41;4956661;28;20457;-75
2024/03/29 10:23:35;;;;;;;5.60;2.50;;;;;;;12.11;60.80;99133.91;4955963;28;20177;-76
2024/03/29 10:26:01;;;;;;;6.10;2.93;;;;;;;12.67;59.54;99116.91;4956646;28;20547;-77
2024/03/29 10:28:32;;;;;;;2.80;2.50;;;;;;;12.54;59.89;99131.16;4956546;28;20527;-77
2024/03/29 10:30:57;;;;;;;5.40;2.80;;;;;;;12.66;58.97;99122.19;4956842;28;20424;-76
2024/03/29 10:33:23;;;;;;;3.07;2.50;;;;;;;12.25;60.16;99127.50;4959248;28;20421;-77
2024/03/29 10:35:48;;;;;;;4.70;2.80;;;;;;;12.22;60.71;99130.19;4963522;28;20191;-77
2024/03/29 10:38:13;;;;;;;3.90;2.60;;;;;;;12.51;59.86;99119.03;4962909;28;20205;-76
2024/03/29 10:40:42;;;;;;;3.53;2.73;;;;;;;12.83;58.92;99127.84;4964675;28;20192;-77
2024/03/29 10:43:13;;;;;;;5.60;3.70;;;;;;;12.71;59.41;99108.09;4968205;28;20208;-77
2024/03/29 10:45:39;;;;;;;5.80;4.00;;;;;;;12.36;60.48;99127.25;4966602;28;20549;-76
2024/03/29 10:48:08;;;;;;;3.80;2.90;;;;;;;12.48;60.36;99128.72;4978645;28;20445;-76
2024/03/29 10:50:37;;;;;;;5.53;3.30;;;;;;;12.93;59.39;99125.84;4959999;28;21074;-77
2024/03/29 10:53:03;;;;;;;6.00;5.30;;;;;;;13.05;58.59;99122.91;4956988;28;20420;-76
2024/03/29 10:55:35;;;;;;;6.47;4.43;;;;;;;13.23;58.45;99118.06;4957794;28;20424;-76
2024/03/29 10:58:02;;;;;;;3.10;2.80;;;;;;;13.13;58.87;99126.16;4960192;28;20413;-77
2024/03/29 11:00:42;;;;;;;3.90;2.87;;;;;;;12.70;59.61;99124.66;4963986;28;20454;-76
2024/03/29 11:03:19;;;;;;;4.63;2.87;;;;;;;12.89;59.22;99108.50;4962416;28;20420;-78
2024/03/29 11:05:49;;;;;;;3.90;2.97;;;;;;;12.70;59.93;99116.81;4961803;28;20462;-76
2024/03/29 11:08:25;;;;;;;3.20;3.00;;;;;;;12.99;58.72;99123.06;4962502;28;20422;-76
2024/03/29 11:10:53;;;;;;;4.47;2.80;;;;;;;13.29;58.31;99123.16;4960884;28;20578;-77
2024/03/29 11:13:34;;;;;;;3.40;3.07;;;;;;;13.03;59.16;99140.41;4961064;29;20474;-76
2024/03/29 11:16:00;;;;;;;4.33;3.10;;;;;;;13.47;57.96;99135.72;4957819;28;20966;-78
2024/03/29 11:18:27;;;;;;;5.03;3.10;;;;;;;13.10;59.35;99144.56;4958765;28;20443;-76
2024/03/29 11:20:54;;;;;;;8.20;5.97;;;;;;;13.18;58.33;99147.00;4959766;29;20267;-77
2024/03/29 11:23:20;;;;;;;9.77;8.27;;;;;;;13.19;59.14;99129.53;4959311;29;20431;-76
2024/03/29 11:25:49;;;;;;;5.03;3.70;;;;;;;13.30;58.99;99138.81;4957132;29;20517;-77
2024/03/29 11:28:23;;;;;;;4.90;2.90;;;;;;;13.48;57.94;99132.22;4958614;29;20564;-77
2024/03/29 11:30:50;;;;;;;3.50;2.70;;;;;;;13.00;59.77;99139.63;4958562;29;20399;-77
2024/03/29 11:33:35;;;;;;;3.70;3.40;;;;;;;13.37;59.03;99131.69;4956718;29;20391;-77
2024/03/29 11:36:11;;;;;;;4.50;3.27;;;;;;;13.12;59.46;99139.28;4958191;29;20393;-77
2024/03/29 11:38:37;;;;;;;5.43;3.23;;;;;;;13.50;59.25;99139.19;4961124;29;20470;-75